createdAt,value
2018-05-10T00:00:18.783Z,997.88
2018-05-10T00:01:18.759Z,997.91
2018-05-10T00:02:18.747Z,997.91
2018-05-10T00:03:18.733Z,997.91
2018-05-10T00:04:18.725Z,997.93
2018-05-10T00:05:18.714Z,997.92
2018-05-10T00:06:18.691Z,997.93
2018-05-10T00:07:18.677Z,997.92
2018-05-10T00:08:18.665Z,997.94
2018-05-10T00:09:18.652Z,997.91
2018-05-10T00:10:18.644Z,997.92
2018-05-10T00:11:18.621Z,997.88
2018-05-10T00:12:18.609Z,997.89
2018-05-10T00:13:18.596Z,997.91
2018-05-10T00:14:18.589Z,997.90
2018-05-10T00:15:18.574Z,997.91
2018-05-10T00:16:18.553Z,997.90
2018-05-10T00:17:18.541Z,997.89
2018-05-10T00:18:18.529Z,997.89
2018-05-10T00:19:18.513Z,997.86
2018-05-10T00:20:18.500Z,997.87
2018-05-10T00:21:18.485Z,997.86
2018-05-10T00:22:18.469Z,997.83
2018-05-10T00:23:18.463Z,997.82
2018-05-10T00:24:18.456Z,997.84
2018-05-10T00:25:18.432Z,997.82
2018-05-10T00:26:18.438Z,997.81
2018-05-10T00:27:18.405Z,997.82
2018-05-10T00:28:18.389Z,997.78
2018-05-10T00:29:19.128Z,997.79
2018-05-10T00:30:18.360Z,997.76
2018-05-10T00:31:18.346Z,997.77
2018-05-10T00:32:18.336Z,997.75
2018-05-10T00:33:18.333Z,997.77
2018-05-10T00:34:18.312Z,997.76
2018-05-10T00:35:18.316Z,997.78
2018-05-10T00:36:18.277Z,997.73
2018-05-10T00:37:18.265Z,997.74
2018-05-10T00:38:18.251Z,997.73
2018-05-10T00:39:18.246Z,997.73
2018-05-10T00:40:18.224Z,997.71
2018-05-10T00:41:18.209Z,997.73
2018-05-10T00:42:18.196Z,997.69
2018-05-10T00:43:18.184Z,997.68
2018-05-10T00:44:18.191Z,997.63
2018-05-10T00:45:18.151Z,997.64
2018-05-10T00:46:18.142Z,997.64
2018-05-10T00:47:18.127Z,997.59
2018-05-10T00:48:18.115Z,997.60
2018-05-10T00:49:18.119Z,997.60
2018-05-10T00:50:18.082Z,997.58
2018-05-10T00:51:18.075Z,997.61
2018-05-10T00:52:18.075Z,997.65
2018-05-10T00:53:18.061Z,997.66
2018-05-10T00:54:18.035Z,997.68
2018-05-10T00:55:18.016Z,997.68
2018-05-10T00:56:18.002Z,997.69
2018-05-10T00:57:17.986Z,997.74
2018-05-10T00:58:17.975Z,997.71
2018-05-10T00:59:17.959Z,997.72
2018-05-10T01:00:17.945Z,997.75
2018-05-10T01:01:17.929Z,997.67
2018-05-10T01:02:17.915Z,997.72
2018-05-10T01:03:17.902Z,997.71
2018-05-10T01:04:17.887Z,997.73
2018-05-10T01:05:17.883Z,997.71
2018-05-10T01:06:17.859Z,997.72
2018-05-10T01:07:17.844Z,997.76
2018-05-10T01:08:17.831Z,997.74
2018-05-10T01:09:17.831Z,997.73
2018-05-10T01:10:17.803Z,997.75
2018-05-10T01:11:17.792Z,997.72
2018-05-10T01:12:17.777Z,997.72
2018-05-10T01:13:17.762Z,997.74
2018-05-10T01:14:17.747Z,997.75
2018-05-10T01:15:17.733Z,997.72
2018-05-10T01:16:17.724Z,997.74
2018-05-10T01:17:17.707Z,997.74
2018-05-10T01:18:17.696Z,997.79
2018-05-10T01:19:17.677Z,997.71
2018-05-10T01:20:17.664Z,997.72
2018-05-10T01:21:17.664Z,997.73
2018-05-10T01:22:17.635Z,997.75
2018-05-10T01:23:17.622Z,997.70
2018-05-10T01:24:17.608Z,997.73
2018-05-10T01:25:17.596Z,997.66
2018-05-10T01:26:17.593Z,997.68
2018-05-10T01:27:17.564Z,997.67
2018-05-10T01:28:17.561Z,997.65
2018-05-10T01:29:17.535Z,997.67
2018-05-10T01:30:17.528Z,997.70
2018-05-10T01:31:17.512Z,997.74
2018-05-10T01:32:17.495Z,997.73
2018-05-10T01:33:17.476Z,997.76
2018-05-10T01:34:17.475Z,997.78
2018-05-10T01:35:17.464Z,997.78
2018-05-10T01:36:17.445Z,997.77
2018-05-10T01:37:17.420Z,997.80
2018-05-10T01:38:17.422Z,997.75
2018-05-10T01:39:17.395Z,997.72
2018-05-10T01:40:17.380Z,997.72
2018-05-10T01:41:17.369Z,997.74
2018-05-10T01:42:17.352Z,997.77
2018-05-10T01:43:17.334Z,997.77
2018-05-10T01:44:17.325Z,997.86
2018-05-10T01:45:17.305Z,997.79
2018-05-10T01:46:17.296Z,997.78
2018-05-10T01:47:17.279Z,997.77
2018-05-10T01:48:17.262Z,997.75
2018-05-10T01:49:17.250Z,997.74
2018-05-10T01:50:17.248Z,997.78
2018-05-10T01:51:17.224Z,997.80
2018-05-10T01:52:17.220Z,997.78
2018-05-10T01:53:17.193Z,997.79
2018-05-10T01:54:17.188Z,997.80
2018-05-10T01:55:17.166Z,997.84
2018-05-10T01:56:17.148Z,997.84
2018-05-10T01:57:17.131Z,997.88
2018-05-10T01:58:17.118Z,997.88
2018-05-10T01:59:17.105Z,997.89
2018-05-10T02:00:17.093Z,997.90
2018-05-10T02:01:17.135Z,997.92
2018-05-10T02:02:17.060Z,997.95
2018-05-10T02:03:17.100Z,997.95
2018-05-10T02:04:17.037Z,997.97
2018-05-10T02:05:17.022Z,997.95
2018-05-10T02:06:17.002Z,997.96
2018-05-10T02:07:16.987Z,997.98
2018-05-10T02:08:16.972Z,997.91
2018-05-10T02:09:16.959Z,997.87
2018-05-10T02:10:16.952Z,997.87
2018-05-10T02:11:16.928Z,997.83
2018-05-10T02:12:16.916Z,997.82
2018-05-10T02:13:16.902Z,997.88
2018-05-10T02:14:16.886Z,997.84
2018-05-10T02:15:16.924Z,997.88
2018-05-10T02:16:16.916Z,997.83
2018-05-10T02:17:16.905Z,997.79
2018-05-10T02:18:16.886Z,997.83
2018-05-10T02:19:16.863Z,997.87
2018-05-10T02:20:16.802Z,997.88
2018-05-10T02:21:16.790Z,997.83
2018-05-10T02:22:16.768Z,997.85
2018-05-10T02:23:16.773Z,997.84
2018-05-10T02:24:16.739Z,997.84
2018-05-10T02:25:16.740Z,997.82
2018-05-10T02:26:16.710Z,997.87
2018-05-10T02:27:16.696Z,997.84
2018-05-10T02:28:16.697Z,997.85
2018-05-10T02:29:16.688Z,997.82
2018-05-10T02:30:16.658Z,997.84
2018-05-10T02:31:16.651Z,997.81
2018-05-10T02:32:17.129Z,997.83
2018-05-10T02:33:16.610Z,997.79
2018-05-10T02:34:16.608Z,997.81
2018-05-10T02:35:16.583Z,997.81
2018-05-10T02:36:16.569Z,997.81
2018-05-10T02:37:16.548Z,997.85
2018-05-10T02:38:16.537Z,997.84
2018-05-10T02:39:16.526Z,997.88
2018-05-10T02:40:16.508Z,997.88
2018-05-10T02:41:16.495Z,997.92
2018-05-10T02:42:16.481Z,998.00
2018-05-10T02:43:16.464Z,997.99
2018-05-10T02:44:16.454Z,997.97
2018-05-10T02:45:16.457Z,997.99
2018-05-10T02:46:16.416Z,997.99
2018-05-10T02:47:16.402Z,998.04
2018-05-10T02:48:16.418Z,998.09
2018-05-10T02:49:16.372Z,998.12
2018-05-10T02:50:16.354Z,998.15
2018-05-10T02:51:16.342Z,998.19
2018-05-10T02:52:16.340Z,998.22
2018-05-10T02:53:16.331Z,998.28
2018-05-10T02:54:16.299Z,998.35
2018-05-10T02:55:16.283Z,998.33
2018-05-10T02:56:16.270Z,998.34
2018-05-10T02:57:16.268Z,998.35
2018-05-10T02:58:16.258Z,998.41
2018-05-10T02:59:16.235Z,998.38
2018-05-10T03:00:16.210Z,998.42
2018-05-10T03:01:16.195Z,998.44
2018-05-10T03:02:16.176Z,998.48
2018-05-10T03:03:16.193Z,998.48
2018-05-10T03:04:18.030Z,998.47
2018-05-10T03:05:16.142Z,998.49
2018-05-10T03:06:16.144Z,998.54
2018-05-10T03:07:16.116Z,998.55
2018-05-10T03:08:16.092Z,998.55
2018-05-10T03:09:16.168Z,998.60
2018-05-10T03:10:16.058Z,998.60
2018-05-10T03:11:16.059Z,998.63
2018-05-10T03:12:16.057Z,998.63
2018-05-10T03:13:16.065Z,998.65
2018-05-10T03:14:16.036Z,998.67
2018-05-10T03:15:15.993Z,998.68
2018-05-10T03:16:15.975Z,998.66
2018-05-10T03:17:15.970Z,998.67
2018-05-10T03:18:15.959Z,998.67
2018-05-10T03:19:15.919Z,998.67
2018-05-10T03:20:15.920Z,998.68
2018-05-10T03:21:15.901Z,998.64
2018-05-10T03:22:15.911Z,998.69
2018-05-10T03:23:15.861Z,998.69
2018-05-10T03:24:15.868Z,998.71
2018-05-10T03:25:15.869Z,998.73
2018-05-10T03:26:15.849Z,998.74
2018-05-10T03:27:15.826Z,998.75
2018-05-10T03:28:15.782Z,998.76
2018-05-10T03:29:15.764Z,998.78
2018-05-10T03:30:15.782Z,998.78
2018-05-10T03:31:15.734Z,998.84
2018-05-10T03:32:15.721Z,998.76
2018-05-10T03:33:15.767Z,998.79
2018-05-10T03:34:15.712Z,998.78
2018-05-10T03:35:15.676Z,998.79
2018-05-10T03:36:15.670Z,998.75
2018-05-10T03:37:15.642Z,998.71
2018-05-10T03:38:15.625Z,998.73
2018-05-10T03:39:15.614Z,998.72
2018-05-10T03:40:15.599Z,998.74
2018-05-10T03:41:15.584Z,998.70
2018-05-10T03:42:15.571Z,998.73
2018-05-10T03:43:15.554Z,998.69
2018-05-10T03:44:15.548Z,998.73
2018-05-10T03:45:15.521Z,998.73
2018-05-10T03:46:15.503Z,998.76
2018-05-10T03:47:15.492Z,998.69
2018-05-10T03:48:15.481Z,998.71
2018-05-10T03:49:15.457Z,998.70
2018-05-10T03:50:15.442Z,998.73
2018-05-10T03:51:15.425Z,998.72
2018-05-10T03:52:15.462Z,998.71
2018-05-10T03:53:15.416Z,998.75
2018-05-10T03:54:15.393Z,998.73
2018-05-10T03:55:15.363Z,998.80
2018-05-10T03:56:15.394Z,998.83
2018-05-10T03:57:15.350Z,998.78
2018-05-10T03:58:15.316Z,998.84
2018-05-10T03:59:15.299Z,998.81
2018-05-10T04:00:15.321Z,998.85
2018-05-10T04:01:15.282Z,998.88
2018-05-10T04:02:15.252Z,998.93
2018-05-10T04:03:15.238Z,998.93
2018-05-10T04:04:15.219Z,998.99
2018-05-10T04:05:15.205Z,998.98
2018-05-10T04:06:15.203Z,998.99
2018-05-10T04:07:15.172Z,999.02
2018-05-10T04:08:15.159Z,999.02
2018-05-10T04:09:15.148Z,999.04
2018-05-10T04:10:15.136Z,999.12
2018-05-10T04:11:15.115Z,999.16
2018-05-10T04:12:15.113Z,999.15
2018-05-10T04:13:15.075Z,999.19
2018-05-10T04:14:15.064Z,999.16
2018-05-10T04:15:15.046Z,999.19
2018-05-10T04:16:15.031Z,999.22
2018-05-10T04:17:15.015Z,999.18
2018-05-10T04:18:14.996Z,999.29
2018-05-10T04:19:14.988Z,999.25
2018-05-10T04:20:14.970Z,999.24
2018-05-10T04:21:14.959Z,999.31
2018-05-10T04:22:14.936Z,999.28
2018-05-10T04:23:14.917Z,999.30
2018-05-10T04:24:14.909Z,999.30
2018-05-10T04:25:14.897Z,999.36
2018-05-10T04:26:14.892Z,999.36
2018-05-10T04:27:14.855Z,999.36
2018-05-10T04:28:14.852Z,999.35
2018-05-10T04:29:14.827Z,999.34
2018-05-10T04:30:14.810Z,999.32
2018-05-10T04:31:14.861Z,999.37
2018-05-10T04:32:14.777Z,999.36
2018-05-10T04:33:14.767Z,999.34
2018-05-10T04:34:14.753Z,999.35
2018-05-10T04:35:15.169Z,999.32
2018-05-10T04:36:14.713Z,999.35
2018-05-10T04:37:14.698Z,999.31
2018-05-10T04:38:14.682Z,999.32
2018-05-10T04:39:14.665Z,999.31
2018-05-10T04:40:14.650Z,999.37
2018-05-10T04:41:14.636Z,999.31
2018-05-10T04:42:14.635Z,999.36
2018-05-10T04:43:14.608Z,999.38
2018-05-10T04:44:14.592Z,999.37
2018-05-10T04:45:14.574Z,999.33
2018-05-10T04:46:14.557Z,999.35
2018-05-10T04:47:14.544Z,999.45
2018-05-10T04:48:14.529Z,999.39
2018-05-10T04:49:14.510Z,999.41
2018-05-10T04:50:14.499Z,999.48
2018-05-10T04:51:14.497Z,999.47
2018-05-10T04:52:14.481Z,999.50
2018-05-10T04:53:14.454Z,999.60
2018-05-10T04:54:14.450Z,999.64
2018-05-10T04:55:14.416Z,999.66
2018-05-10T04:56:14.401Z,999.67
2018-05-10T04:57:14.386Z,999.74
2018-05-10T04:58:14.366Z,999.71
2018-05-10T04:59:14.356Z,999.72
2018-05-10T05:00:14.357Z,999.78
2018-05-10T05:01:14.341Z,999.76
2018-05-10T05:02:14.309Z,999.84
2018-05-10T05:03:14.287Z,999.81
2018-05-10T05:04:14.274Z,999.83
2018-05-10T05:05:14.257Z,999.88
2018-05-10T05:06:15.138Z,999.88
2018-05-10T05:07:14.227Z,999.87
2018-05-10T05:08:14.211Z,999.91
2018-05-10T05:09:14.196Z,999.94
2018-05-10T05:10:14.181Z,999.96
2018-05-10T05:11:14.164Z,999.94
2018-05-10T05:12:14.147Z,999.94
2018-05-10T05:13:14.134Z,999.92
2018-05-10T05:14:14.112Z,999.95
2018-05-10T05:15:14.103Z,999.92
2018-05-10T05:16:14.082Z,999.95
2018-05-10T05:17:14.069Z,999.93
2018-05-10T05:18:14.061Z,999.91
2018-05-10T05:19:14.035Z,999.89
2018-05-10T05:20:14.021Z,999.91
2018-05-10T05:21:14.008Z,999.85
2018-05-10T05:22:14.014Z,999.85
2018-05-10T05:23:13.970Z,999.84
2018-05-10T05:24:13.965Z,999.87
2018-05-10T05:25:13.937Z,999.92
2018-05-10T05:26:13.931Z,999.92
2018-05-10T05:27:13.913Z,999.98
2018-05-10T05:28:13.893Z,999.96
2018-05-10T05:29:13.876Z,1000.08
2018-05-10T05:30:13.869Z,1000.07
2018-05-10T05:31:13.850Z,1000.15
2018-05-10T05:32:13.827Z,1000.19
2018-05-10T05:33:13.816Z,1000.27
2018-05-10T05:34:13.801Z,1000.34
2018-05-10T05:35:13.785Z,1000.33
2018-05-10T05:36:13.768Z,1000.32
2018-05-10T05:37:13.751Z,1000.36
2018-05-10T05:38:13.744Z,1000.32
2018-05-10T05:39:13.720Z,1000.28
2018-05-10T05:40:13.708Z,1000.27
2018-05-10T05:41:13.787Z,1000.31
2018-05-10T05:42:13.712Z,1000.33
2018-05-10T05:43:13.726Z,1000.36
2018-05-10T05:44:13.646Z,1000.43
2018-05-10T05:45:13.624Z,1000.48
2018-05-10T05:46:13.611Z,1000.50
2018-05-10T05:47:13.594Z,1000.55
2018-05-10T05:48:13.601Z,1000.60
2018-05-10T05:49:13.566Z,1000.60
2018-05-10T05:50:13.545Z,1000.66
2018-05-10T05:51:13.558Z,1000.64
2018-05-10T05:52:13.553Z,1000.56
2018-05-10T05:53:13.522Z,1000.58
2018-05-10T05:54:13.478Z,1000.55
2018-05-10T05:55:13.520Z,1000.55
2018-05-10T05:56:13.497Z,1000.51
2018-05-10T05:57:13.435Z,1000.54
2018-05-10T05:58:13.435Z,1000.50
2018-05-10T05:59:13.408Z,1000.50
2018-05-10T06:00:13.431Z,1000.49
2018-05-10T06:01:13.380Z,1000.52
2018-05-10T06:02:13.376Z,1000.50
2018-05-10T06:03:13.369Z,1000.49
2018-05-10T06:04:13.352Z,1000.50
2018-05-10T06:05:13.305Z,1000.51
2018-05-10T06:06:14.002Z,1000.44
2018-05-10T06:07:13.277Z,1000.43
2018-05-10T06:08:13.260Z,1000.37
2018-05-10T06:09:13.245Z,1000.31
2018-05-10T06:10:13.241Z,1000.36
2018-05-10T06:11:13.220Z,1000.36
2018-05-10T06:12:13.198Z,1000.37
2018-05-10T06:13:13.181Z,1000.37
2018-05-10T06:14:13.193Z,1000.28
2018-05-10T06:15:13.159Z,1000.26
2018-05-10T06:16:13.143Z,1000.26
2018-05-10T06:17:13.157Z,1000.29
2018-05-10T06:18:13.160Z,1000.31
2018-05-10T06:19:13.084Z,1000.36
2018-05-10T06:20:13.079Z,1000.37
2018-05-10T06:21:13.054Z,1000.39
2018-05-10T06:22:13.037Z,1000.41
2018-05-10T06:23:13.026Z,1000.42
2018-05-10T06:24:13.014Z,1000.42
2018-05-10T06:25:13.037Z,1000.44
2018-05-10T06:26:13.062Z,1000.47
2018-05-10T06:27:12.975Z,1000.46
2018-05-10T06:28:12.951Z,1000.50
2018-05-10T06:29:12.956Z,1000.56
2018-05-10T06:30:12.913Z,1000.57
2018-05-10T06:31:12.897Z,1000.62
2018-05-10T06:32:12.882Z,1000.56
2018-05-10T06:33:12.870Z,1000.63
2018-05-10T06:34:12.882Z,1000.62
2018-05-10T06:35:12.905Z,1000.64
2018-05-10T06:36:12.820Z,1000.66
2018-05-10T06:37:13.657Z,1000.63
2018-05-10T06:38:12.830Z,1000.65
2018-05-10T06:39:12.797Z,1000.70
2018-05-10T06:40:12.825Z,1000.73
2018-05-10T06:41:12.740Z,1000.76
2018-05-10T06:42:12.748Z,1000.80
2018-05-10T06:43:12.713Z,1000.81
2018-05-10T06:44:12.743Z,1000.85
2018-05-10T06:45:12.766Z,1000.85
2018-05-10T06:46:12.696Z,1000.90
2018-05-10T06:47:12.700Z,1000.93
2018-05-10T06:48:12.633Z,1000.97
2018-05-10T06:49:12.630Z,1000.97
2018-05-10T06:50:12.600Z,1000.90
2018-05-10T06:51:12.596Z,1001.04
2018-05-10T06:52:12.568Z,1000.96
2018-05-10T06:53:12.548Z,1001.04
2018-05-10T06:54:16.331Z,1000.97
2018-05-10T06:55:12.523Z,1000.98
2018-05-10T06:56:12.504Z,1000.97
2018-05-10T06:57:12.485Z,1001.06
2018-05-10T06:58:12.469Z,1001.04
2018-05-10T06:59:12.455Z,1001.05
2018-05-10T07:00:12.448Z,1001.06
2018-05-10T07:01:12.440Z,1001.10
2018-05-10T07:02:12.406Z,1001.11
2018-05-10T07:03:13.181Z,1001.15
2018-05-10T07:04:13.382Z,1001.18
2018-05-10T07:05:12.359Z,1001.14
2018-05-10T07:06:12.350Z,1001.15
2018-05-10T07:07:12.416Z,1001.12
2018-05-10T07:08:12.363Z,1001.16
2018-05-10T07:09:12.294Z,1001.15
2018-05-10T07:10:12.286Z,1001.20
2018-05-10T07:11:12.316Z,1001.21
2018-05-10T07:12:12.481Z,1001.17
2018-05-10T07:13:12.238Z,1001.26
2018-05-10T07:14:12.243Z,1001.25
2018-05-10T07:15:12.209Z,1001.31
2018-05-10T07:16:12.183Z,1001.33
2018-05-10T07:17:12.231Z,1001.31
2018-05-10T07:18:12.166Z,1001.33
2018-05-10T07:19:12.136Z,1001.32
2018-05-10T07:20:12.123Z,1001.33
2018-05-10T07:21:12.115Z,1001.31
2018-05-10T07:22:12.112Z,1001.30
2018-05-10T07:23:12.131Z,1001.35
2018-05-10T07:24:12.095Z,1001.37
2018-05-10T07:25:12.129Z,1001.37
2018-05-10T07:26:13.676Z,1001.43
2018-05-10T07:27:12.030Z,1001.43
2018-05-10T07:28:12.039Z,1001.41
2018-05-10T07:29:12.027Z,1001.39
2018-05-10T07:30:11.961Z,1001.38
2018-05-10T07:31:11.950Z,1001.38
2018-05-10T07:32:11.932Z,1001.38
2018-05-10T07:33:11.974Z,1001.39
2018-05-10T07:34:11.898Z,1001.45
2018-05-10T07:35:11.881Z,1001.39
2018-05-10T07:36:11.891Z,1001.36
2018-05-10T07:37:11.882Z,1001.39
2018-05-10T07:38:11.834Z,1001.44
2018-05-10T07:39:11.825Z,1001.42
2018-05-10T07:40:11.857Z,1001.44
2018-05-10T07:41:11.796Z,1001.46
2018-05-10T07:42:11.896Z,1001.44
2018-05-10T07:43:11.764Z,1001.51
2018-05-10T07:44:11.818Z,1001.51
2018-05-10T07:45:11.759Z,1001.56
2018-05-10T07:46:11.764Z,1001.53
2018-05-10T07:47:11.708Z,1001.53
2018-05-10T07:48:11.848Z,1001.55
2018-05-10T07:49:11.672Z,1001.55
2018-05-10T07:50:11.649Z,1001.54
2018-05-10T07:51:11.662Z,1001.52
2018-05-10T07:52:11.622Z,1001.59
2018-05-10T07:53:11.644Z,1001.57
2018-05-10T07:54:11.628Z,1001.59
2018-05-10T07:55:11.633Z,1001.60
2018-05-10T07:56:11.553Z,1001.59
2018-05-10T07:57:11.536Z,1001.60
2018-05-10T07:58:11.526Z,1001.60
2018-05-10T07:59:11.508Z,1001.64
2018-05-10T08:00:11.498Z,1001.64
2018-05-10T08:01:11.475Z,1001.64
2018-05-10T08:02:11.581Z,1001.63
2018-05-10T08:03:11.451Z,1001.62
2018-05-10T08:04:11.439Z,1001.66
2018-05-10T08:05:11.412Z,1001.66
2018-05-10T08:06:11.399Z,1001.70
2018-05-10T08:07:11.385Z,1001.68
2018-05-10T08:08:11.387Z,1001.72
2018-05-10T08:09:11.415Z,1001.79
2018-05-10T08:10:11.456Z,1001.77
2018-05-10T08:11:11.328Z,1001.82
2018-05-10T08:12:11.309Z,1001.87
2018-05-10T08:13:11.294Z,1001.86
2018-05-10T08:14:11.280Z,1001.90
2018-05-10T08:15:11.257Z,1001.90
2018-05-10T08:16:11.242Z,1001.93
2018-05-10T08:17:11.254Z,1001.91
2018-05-10T08:18:11.214Z,1001.96
2018-05-10T08:19:11.199Z,1001.93
2018-05-10T08:20:11.191Z,1001.93
2018-05-10T08:21:11.166Z,1001.97
2018-05-10T08:22:11.149Z,1001.97
2018-05-10T08:23:11.132Z,1001.98
2018-05-10T08:24:11.196Z,1002.01
2018-05-10T08:25:11.103Z,1002.00
2018-05-10T08:26:11.147Z,1002.00
2018-05-10T08:27:11.100Z,1002.03
2018-05-10T08:28:11.063Z,1002.04
2018-05-10T08:29:11.041Z,1001.99
2018-05-10T08:30:11.068Z,1002.00
2018-05-10T08:31:11.085Z,1002.00
2018-05-10T08:32:11.044Z,1002.05
2018-05-10T08:33:11.507Z,1002.02
2018-05-10T08:34:10.986Z,1002.03
2018-05-10T08:35:10.953Z,1002.02
2018-05-10T08:36:10.935Z,1002.00
2018-05-10T08:37:10.924Z,1002.07
2018-05-10T08:38:10.917Z,1002.03
2018-05-10T08:39:10.902Z,1002.11
2018-05-10T08:40:10.914Z,1002.11
2018-05-10T08:41:10.858Z,1002.14
2018-05-10T08:42:10.843Z,1002.12
2018-05-10T08:43:10.937Z,1002.17
2018-05-10T08:44:10.814Z,1002.13
2018-05-10T08:45:10.880Z,1002.13
2018-05-10T08:46:10.787Z,1002.18
2018-05-10T08:47:10.814Z,1002.18
2018-05-10T08:48:10.801Z,1002.09
2018-05-10T08:49:10.769Z,1002.10
2018-05-10T08:50:10.772Z,1002.13
2018-05-10T08:51:10.753Z,1002.11
2018-05-10T08:52:11.647Z,1002.12
2018-05-10T08:53:10.732Z,1002.14
2018-05-10T08:54:10.716Z,1002.06
2018-05-10T08:55:11.143Z,1002.06
2018-05-10T08:56:10.685Z,1002.10
2018-05-10T08:57:10.613Z,1002.08
2018-05-10T08:58:10.601Z,1002.11
2018-05-10T08:59:11.198Z,1002.12
2018-05-10T09:00:10.618Z,1002.17
2018-05-10T09:01:10.552Z,1002.17
2018-05-10T09:02:10.541Z,1002.19
2018-05-10T09:03:10.549Z,1002.22
2018-05-10T09:04:10.537Z,1002.25
2018-05-10T09:05:10.493Z,1002.26
2018-05-10T09:06:10.477Z,1002.27
2018-05-10T09:07:10.466Z,1002.29
2018-05-10T09:08:10.446Z,1002.28
2018-05-10T09:09:10.466Z,1002.31
2018-05-10T09:10:10.415Z,1002.26
2018-05-10T09:11:10.403Z,1002.23
2018-05-10T09:12:10.434Z,1002.22
2018-05-10T09:13:10.372Z,1002.21
2018-05-10T09:14:10.356Z,1002.19
2018-05-10T09:15:10.344Z,1002.26
2018-05-10T09:16:10.328Z,1002.26
2018-05-10T09:17:10.308Z,1002.28
2018-05-10T09:18:10.294Z,1002.34
2018-05-10T09:19:10.277Z,1002.35
2018-05-10T09:20:10.271Z,1002.38
2018-05-10T09:21:10.260Z,1002.39
2018-05-10T09:22:10.233Z,1002.38
2018-05-10T09:23:10.250Z,1002.41
2018-05-10T09:24:10.208Z,1002.39
2018-05-10T09:25:10.202Z,1002.39
2018-05-10T09:26:10.185Z,1002.38
2018-05-10T09:27:10.636Z,1002.37
2018-05-10T09:28:10.158Z,1002.38
2018-05-10T09:29:10.131Z,1002.43
2018-05-10T09:30:10.123Z,1002.43
2018-05-10T09:31:10.185Z,1002.43
2018-05-10T09:32:10.092Z,1002.42
2018-05-10T09:33:10.072Z,1002.52
2018-05-10T09:34:10.056Z,1002.53
2018-05-10T09:35:10.102Z,1002.59
2018-05-10T09:36:10.743Z,1002.64
2018-05-10T09:37:10.713Z,1002.63
2018-05-10T09:38:11.661Z,1002.63
2018-05-10T09:39:10.063Z,1002.66
2018-05-10T09:40:10.019Z,1002.72
2018-05-10T09:41:09.959Z,1002.74
2018-05-10T09:42:09.945Z,1002.75
2018-05-10T09:43:09.959Z,1002.84
2018-05-10T09:44:10.028Z,1002.79
2018-05-10T09:45:10.695Z,1002.79
2018-05-10T09:46:09.883Z,1002.85
2018-05-10T09:47:11.024Z,1002.83
2018-05-10T09:48:09.896Z,1002.81
2018-05-10T09:49:09.848Z,1002.75
2018-05-10T09:50:09.869Z,1002.79
2018-05-10T09:51:09.884Z,1002.82
2018-05-10T09:52:10.692Z,1002.84
2018-05-10T09:53:09.797Z,1002.87
2018-05-10T09:54:09.933Z,1002.88
2018-05-10T09:55:10.719Z,1002.91
2018-05-10T09:56:13.928Z,1002.89
2018-05-10T09:57:09.714Z,1002.96
2018-05-10T09:58:10.278Z,1002.95
2018-05-10T09:59:09.735Z,1002.95
2018-05-10T10:00:09.667Z,1002.99
2018-05-10T10:01:10.308Z,1003.01
2018-05-10T10:02:09.686Z,1003.00
2018-05-10T10:03:09.668Z,1003.03
2018-05-10T10:04:09.664Z,1003.05
2018-05-10T10:05:09.602Z,1003.05
2018-05-10T10:06:09.651Z,1003.14
2018-05-10T10:07:09.565Z,1003.15
2018-05-10T10:08:09.546Z,1003.18
2018-05-10T10:09:09.582Z,1003.17
2018-05-10T10:10:09.516Z,1003.17
2018-05-10T10:11:10.223Z,1003.21
2018-05-10T10:12:09.485Z,1003.22
2018-05-10T10:13:09.525Z,1003.26
2018-05-10T10:14:09.531Z,1003.25
2018-05-10T10:15:10.353Z,1003.30
2018-05-10T10:16:09.474Z,1003.23
2018-05-10T10:17:09.405Z,1003.23
2018-05-10T10:18:09.402Z,1003.29
2018-05-10T10:19:09.382Z,1003.27
2018-05-10T10:20:09.540Z,1003.26
2018-05-10T10:21:09.349Z,1003.38
2018-05-10T10:22:09.384Z,1003.34
2018-05-10T10:23:09.313Z,1003.32
2018-05-10T10:24:09.301Z,1003.39
2018-05-10T10:25:09.297Z,1003.40
2018-05-10T10:26:09.266Z,1003.48
2018-05-10T10:27:09.263Z,1003.45
2018-05-10T10:28:09.313Z,1003.51
2018-05-10T10:29:09.225Z,1003.52
2018-05-10T10:30:09.246Z,1003.50
2018-05-10T10:31:10.515Z,1003.58
2018-05-10T10:32:09.217Z,1003.61
2018-05-10T10:33:09.154Z,1003.65
2018-05-10T10:34:09.149Z,1003.70
2018-05-10T10:35:09.134Z,1003.69
2018-05-10T10:36:09.108Z,1003.71
2018-05-10T10:37:09.136Z,1003.75
2018-05-10T10:38:09.148Z,1003.86
2018-05-10T10:39:09.062Z,1003.86
2018-05-10T10:40:09.090Z,1003.88
2018-05-10T10:41:09.032Z,1003.89
2018-05-10T10:42:09.009Z,1003.91
2018-05-10T10:43:09.004Z,1003.93
2018-05-10T10:44:09.046Z,1003.97
2018-05-10T10:45:09.016Z,1003.97
2018-05-10T10:46:09.066Z,1003.93
2018-05-10T10:47:08.934Z,1003.97
2018-05-10T10:48:08.917Z,1004.00
2018-05-10T10:49:08.905Z,1003.98
2018-05-10T10:50:08.883Z,1003.95
2018-05-10T10:51:09.058Z,1004.02
2018-05-10T10:52:08.853Z,1004.01
2018-05-10T10:53:08.835Z,1004.04
2018-05-10T10:54:08.818Z,1004.02
2018-05-10T10:55:08.804Z,1004.06
2018-05-10T10:56:08.788Z,1004.04
2018-05-10T10:57:08.772Z,1004.08
2018-05-10T10:58:08.753Z,1004.11
2018-05-10T10:59:08.744Z,1004.11
2018-05-10T11:00:08.821Z,1004.13
2018-05-10T11:01:08.712Z,1004.17
2018-05-10T11:02:08.697Z,1004.17
2018-05-10T11:03:08.677Z,1004.23
2018-05-10T11:04:08.660Z,1004.28
2018-05-10T11:05:08.650Z,1004.28
2018-05-10T11:06:08.630Z,1004.32
2018-05-10T11:07:08.642Z,1004.29
2018-05-10T11:08:09.013Z,1004.34
2018-05-10T11:09:11.953Z,1004.34
2018-05-10T11:10:08.563Z,1004.39
2018-05-10T11:11:08.559Z,1004.41
2018-05-10T11:12:08.610Z,1004.40
2018-05-10T11:13:08.534Z,1004.40
2018-05-10T11:14:08.502Z,1004.41
2018-05-10T11:15:08.601Z,1004.42
2018-05-10T11:16:08.465Z,1004.46
2018-05-10T11:17:08.450Z,1004.45
2018-05-10T11:18:08.439Z,1004.52
2018-05-10T11:19:08.422Z,1004.51
2018-05-10T11:20:08.406Z,1004.57
2018-05-10T11:21:08.393Z,1004.56
2018-05-10T11:22:08.448Z,1004.67
2018-05-10T11:23:08.356Z,1004.63
2018-05-10T11:24:08.341Z,1004.67
2018-05-10T11:25:08.373Z,1004.65
2018-05-10T11:26:08.334Z,1004.76
2018-05-10T11:27:08.495Z,1004.75
2018-05-10T11:28:08.292Z,1004.75
2018-05-10T11:29:08.297Z,1004.75
2018-05-10T11:30:08.410Z,1004.75
2018-05-10T11:31:08.228Z,1004.74
2018-05-10T11:32:08.222Z,1004.74
2018-05-10T11:33:08.233Z,1004.75
2018-05-10T11:34:08.183Z,1004.76
2018-05-10T11:35:08.156Z,1004.73
2018-05-10T11:36:08.168Z,1004.79
2018-05-10T11:37:08.193Z,1004.78
2018-05-10T11:38:08.124Z,1004.83
2018-05-10T11:39:08.097Z,1004.81
2018-05-10T11:40:08.069Z,1004.85
2018-05-10T11:41:08.053Z,1004.86
2018-05-10T11:42:08.036Z,1004.89
2018-05-10T11:43:08.019Z,1004.90
2018-05-10T11:44:08.005Z,1004.89
2018-05-10T11:45:07.990Z,1004.94
2018-05-10T11:46:07.976Z,1004.93
2018-05-10T11:47:07.957Z,1004.97
2018-05-10T11:48:07.941Z,1004.98
2018-05-10T11:49:07.937Z,1005.02
2018-05-10T11:50:07.903Z,1005.01
2018-05-10T11:51:07.890Z,1005.06
2018-05-10T11:52:07.878Z,1005.06
2018-05-10T11:53:07.857Z,1005.04
2018-05-10T11:54:07.839Z,1005.08
2018-05-10T11:55:07.855Z,1005.08
2018-05-10T11:56:07.825Z,1005.17
2018-05-10T11:57:07.824Z,1005.16
2018-05-10T11:58:07.782Z,1005.12
2018-05-10T11:59:07.770Z,1005.23
2018-05-10T12:00:07.752Z,1005.23
2018-05-10T12:01:07.727Z,1005.25
2018-05-10T12:02:07.710Z,1005.27
2018-05-10T12:03:07.742Z,1005.33
2018-05-10T12:04:07.680Z,1005.30
2018-05-10T12:05:07.655Z,1005.31
2018-05-10T12:06:07.718Z,1005.36
2018-05-10T12:07:07.624Z,1005.37
2018-05-10T12:08:07.608Z,1005.42
2018-05-10T12:09:07.589Z,1005.43
2018-05-10T12:10:07.635Z,1005.52
2018-05-10T12:11:07.557Z,1005.46
2018-05-10T12:12:07.546Z,1005.52
2018-05-10T12:13:07.527Z,1005.48
2018-05-10T12:14:07.509Z,1005.49
2018-05-10T12:15:07.497Z,1005.52